sensor_id;sensor_type;location;lat;lon;timestamp;P1;durP1;ratioP1;P2;durP2;ratioP2
4206;SDS011;2117;47.972;7.830;2023-03-18T00:02:21;4.97;;;1.80;;
4206;SDS011;2117;47.972;7.830;2023-03-18T00:04:46;4.30;;;2.10;;
4206;SDS011;2117;47.972;7.830;2023-03-18T00:07:12;3.27;;;2.20;;
4206;SDS011;2117;47.972;7.830;2023-03-18T00:09:38;2.47;;;1.63;;
4206;SDS011;2117;47.972;7.830;2023-03-18T00:12:04;3.90;;;2.03;;
4206;SDS011;2117;47.972;7.830;2023-03-18T00:14:30;5.20;;;1.90;;
4206;SDS011;2117;47.972;7.830;2023-03-18T00:16:56;3.00;;;1.57;;
4206;SDS011;2117;47.972;7.830;2023-03-18T00:19:22;4.60;;;1.47;;
4206;SDS011;2117;47.972;7.830;2023-03-18T00:21:51;2.60;;;1.30;;
4206;SDS011;2117;47.972;7.830;2023-03-18T00:24:17;4.63;;;2.60;;
4206;SDS011;2117;47.972;7.830;2023-03-18T00:26:42;3.17;;;1.50;;
4206;SDS011;2117;47.972;7.830;2023-03-18T00:29:08;4.03;;;1.70;;
4206;SDS011;2117;47.972;7.830;2023-03-18T00:31:35;4.53;;;1.50;;
4206;SDS011;2117;47.972;7.830;2023-03-18T00:34:02;3.13;;;1.47;;
4206;SDS011;2117;47.972;7.830;2023-03-18T00:36:28;6.93;;;1.93;;
4206;SDS011;2117;47.972;7.830;2023-03-18T00:38:55;4.30;;;1.77;;
4206;SDS011;2117;47.972;7.830;2023-03-18T00:41:25;6.77;;;1.93;;
4206;SDS011;2117;47.972;7.830;2023-03-18T00:43:52;3.80;;;1.50;;
4206;SDS011;2117;47.972;7.830;2023-03-18T00:46:22;4.43;;;1.80;;
4206;SDS011;2117;47.972;7.830;2023-03-18T00:48:50;9.30;;;1.40;;
4206;SDS011;2117;47.972;7.830;2023-03-18T00:51:18;3.33;;;2.10;;
4206;SDS011;2117;47.972;7.830;2023-03-18T00:53:47;4.73;;;1.40;;
4206;SDS011;2117;47.972;7.830;2023-03-18T00:56:15;2.50;;;1.60;;
4206;SDS011;2117;47.972;7.830;2023-03-18T00:58:42;4.37;;;1.63;;
4206;SDS011;2117;47.972;7.830;2023-03-18T01:01:08;4.47;;;1.63;;
4206;SDS011;2117;47.972;7.830;2023-03-18T01:03:34;4.03;;;1.20;;
4206;SDS011;2117;47.972;7.830;2023-03-18T01:06:00;3.43;;;1.77;;
4206;SDS011;2117;47.972;7.830;2023-03-18T01:08:28;3.03;;;1.60;;
4206;SDS011;2117;47.972;7.830;2023-03-18T01:10:55;3.30;;;1.43;;
4206;SDS011;2117;47.972;7.830;2023-03-18T01:13:21;2.50;;;1.50;;
4206;SDS011;2117;47.972;7.830;2023-03-18T01:15:48;4.33;;;2.17;;
4206;SDS011;2117;47.972;7.830;2023-03-18T01:18:14;5.93;;;1.60;;
4206;SDS011;2117;47.972;7.830;2023-03-18T01:20:40;4.00;;;2.63;;
4206;SDS011;2117;47.972;7.830;2023-03-18T01:23:06;3.37;;;1.47;;
4206;SDS011;2117;47.972;7.830;2023-03-18T01:25:33;4.30;;;1.30;;
4206;SDS011;2117;47.972;7.830;2023-03-18T01:27:58;2.63;;;1.37;;
4206;SDS011;2117;47.972;7.830;2023-03-18T01:30:25;8.37;;;1.40;;
4206;SDS011;2117;47.972;7.830;2023-03-18T01:32:52;3.80;;;1.60;;
4206;SDS011;2117;47.972;7.830;2023-03-18T01:35:18;3.27;;;1.50;;
4206;SDS011;2117;47.972;7.830;2023-03-18T01:37:44;12.40;;;1.87;;
4206;SDS011;2117;47.972;7.830;2023-03-18T01:40:11;4.60;;;1.53;;
4206;SDS011;2117;47.972;7.830;2023-03-18T01:42:38;3.00;;;1.70;;
4206;SDS011;2117;47.972;7.830;2023-03-18T01:45:12;3.40;;;2.00;;
4206;SDS011;2117;47.972;7.830;2023-03-18T01:47:47;2.87;;;1.70;;
4206;SDS011;2117;47.972;7.830;2023-03-18T01:50:15;8.27;;;2.00;;
4206;SDS011;2117;47.972;7.830;2023-03-18T01:53:09;6.73;;;2.20;;
4206;SDS011;2117;47.972;7.830;2023-03-18T01:55:38;4.60;;;1.90;;
4206;SDS011;2117;47.972;7.830;2023-03-18T01:58:06;6.53;;;2.30;;
4206;SDS011;2117;47.972;7.830;2023-03-18T02:00:39;4.13;;;2.30;;
4206;SDS011;2117;47.972;7.830;2023-03-18T02:03:08;3.50;;;1.73;;
4206;SDS011;2117;47.972;7.830;2023-03-18T02:05:35;3.30;;;1.70;;
4206;SDS011;2117;47.972;7.830;2023-03-18T02:08:01;2.77;;;1.60;;
4206;SDS011;2117;47.972;7.830;2023-03-18T02:10:27;3.43;;;1.60;;
4206;SDS011;2117;47.972;7.830;2023-03-18T02:12:56;5.70;;;1.97;;
4206;SDS011;2117;47.972;7.830;2023-03-18T02:15:30;4.37;;;1.67;;
4206;SDS011;2117;47.972;7.830;2023-03-18T02:18:17;4.90;;;1.50;;
4206;SDS011;2117;47.972;7.830;2023-03-18T02:23:48;2.67;;;1.30;;
4206;SDS011;2117;47.972;7.830;2023-03-18T02:26:20;3.33;;;1.80;;
4206;SDS011;2117;47.972;7.830;2023-03-18T02:28:54;2.90;;;1.67;;
4206;SDS011;2117;47.972;7.830;2023-03-18T02:31:23;1.67;;;1.10;;
4206;SDS011;2117;47.972;7.830;2023-03-18T02:33:50;2.60;;;1.30;;
4206;SDS011;2117;47.972;7.830;2023-03-18T02:36:21;2.80;;;1.67;;
4206;SDS011;2117;47.972;7.830;2023-03-18T02:38:52;5.20;;;1.50;;
4206;SDS011;2117;47.972;7.830;2023-03-18T02:41:23;6.03;;;2.10;;
4206;SDS011;2117;47.972;7.830;2023-03-18T02:43:51;8.20;;;2.50;;
4206;SDS011;2117;47.972;7.830;2023-03-18T02:46:34;4.50;;;1.93;;
4206;SDS011;2117;47.972;7.830;2023-03-18T02:49:12;2.50;;;1.60;;
4206;SDS011;2117;47.972;7.830;2023-03-18T02:51:38;12.23;;;2.57;;
4206;SDS011;2117;47.972;7.830;2023-03-18T02:54:07;5.03;;;1.30;;
4206;SDS011;2117;47.972;7.830;2023-03-18T02:56:38;3.53;;;1.30;;
4206;SDS011;2117;47.972;7.830;2023-03-18T02:59:05;4.80;;;2.20;;
4206;SDS011;2117;47.972;7.830;2023-03-18T03:01:31;2.90;;;1.20;;
4206;SDS011;2117;47.972;7.830;2023-03-18T03:03:58;2.60;;;1.90;;
4206;SDS011;2117;47.972;7.830;2023-03-18T03:06:24;6.73;;;1.83;;
4206;SDS011;2117;47.972;7.830;2023-03-18T03:08:50;5.00;;;2.73;;
4206;SDS011;2117;47.972;7.830;2023-03-18T03:11:16;3.57;;;1.57;;
4206;SDS011;2117;47.972;7.830;2023-03-18T03:13:42;4.10;;;1.93;;
4206;SDS011;2117;47.972;7.830;2023-03-18T03:16:10;2.40;;;1.50;;
4206;SDS011;2117;47.972;7.830;2023-03-18T03:18:37;3.77;;;1.90;;
4206;SDS011;2117;47.972;7.830;2023-03-18T03:21:02;4.13;;;1.70;;
4206;SDS011;2117;47.972;7.830;2023-03-18T03:23:29;2.40;;;1.20;;
4206;SDS011;2117;47.972;7.830;2023-03-18T03:25:55;5.27;;;1.67;;
4206;SDS011;2117;47.972;7.830;2023-03-18T03:28:21;4.67;;;1.93;;
4206;SDS011;2117;47.972;7.830;2023-03-18T03:30:47;3.07;;;1.73;;
4206;SDS011;2117;47.972;7.830;2023-03-18T03:33:13;2.43;;;1.40;;
4206;SDS011;2117;47.972;7.830;2023-03-18T03:35:39;3.70;;;2.00;;
4206;SDS011;2117;47.972;7.830;2023-03-18T03:38:05;4.10;;;1.27;;
4206;SDS011;2117;47.972;7.830;2023-03-18T03:40:31;6.60;;;1.87;;
4206;SDS011;2117;47.972;7.830;2023-03-18T03:42:57;3.40;;;1.57;;
4206;SDS011;2117;47.972;7.830;2023-03-18T03:45:23;3.10;;;1.40;;
4206;SDS011;2117;47.972;7.830;2023-03-18T03:47:49;3.30;;;1.10;;
4206;SDS011;2117;47.972;7.830;2023-03-18T03:50:15;3.50;;;1.53;;
4206;SDS011;2117;47.972;7.830;2023-03-18T03:52:42;2.50;;;1.50;;
4206;SDS011;2117;47.972;7.830;2023-03-18T03:55:08;2.70;;;1.40;;
4206;SDS011;2117;47.972;7.830;2023-03-18T03:57:36;3.63;;;1.23;;
4206;SDS011;2117;47.972;7.830;2023-03-18T04:00:06;9.37;;;2.57;;
4206;SDS011;2117;47.972;7.830;2023-03-18T04:02:37;3.10;;;1.60;;
4206;SDS011;2117;47.972;7.830;2023-03-18T04:05:03;2.27;;;1.30;;
4206;SDS011;2117;47.972;7.830;2023-03-18T04:07:30;8.37;;;2.27;;
4206;SDS011;2117;47.972;7.830;2023-03-18T04:09:56;2.90;;;1.67;;
4206;SDS011;2117;47.972;7.830;2023-03-18T04:12:21;3.60;;;1.33;;
4206;SDS011;2117;47.972;7.830;2023-03-18T04:14:47;2.50;;;1.47;;
4206;SDS011;2117;47.972;7.830;2023-03-18T04:17:14;2.67;;;1.30;;
4206;SDS011;2117;47.972;7.830;2023-03-18T04:19:39;2.40;;;1.23;;
4206;SDS011;2117;47.972;7.830;2023-03-18T04:22:05;2.37;;;1.30;;
4206;SDS011;2117;47.972;7.830;2023-03-18T04:24:31;5.90;;;1.40;;
4206;SDS011;2117;47.972;7.830;2023-03-18T04:26:57;11.40;;;1.70;;
4206;SDS011;2117;47.972;7.830;2023-03-18T04:29:22;2.43;;;1.40;;
4206;SDS011;2117;47.972;7.830;2023-03-18T04:31:48;3.10;;;1.87;;
4206;SDS011;2117;47.972;7.830;2023-03-18T04:34:13;3.60;;;1.70;;
4206;SDS011;2117;47.972;7.830;2023-03-18T04:36:39;3.20;;;1.30;;
4206;SDS011;2117;47.972;7.830;2023-03-18T04:39:05;3.70;;;1.50;;
4206;SDS011;2117;47.972;7.830;2023-03-18T04:41:30;2.33;;;1.23;;
4206;SDS011;2117;47.972;7.830;2023-03-18T04:43:56;4.07;;;1.70;;
4206;SDS011;2117;47.972;7.830;2023-03-18T04:46:22;3.40;;;1.83;;
4206;SDS011;2117;47.972;7.830;2023-03-18T04:48:47;2.40;;;1.33;;
4206;SDS011;2117;47.972;7.830;2023-03-18T04:51:13;4.07;;;1.70;;
4206;SDS011;2117;47.972;7.830;2023-03-18T04:53:39;4.17;;;1.40;;
4206;SDS011;2117;47.972;7.830;2023-03-18T04:56:06;2.33;;;1.47;;
4206;SDS011;2117;47.972;7.830;2023-03-18T04:58:32;3.40;;;1.33;;
4206;SDS011;2117;47.972;7.830;2023-03-18T05:00:58;4.77;;;1.60;;
4206;SDS011;2117;47.972;7.830;2023-03-18T05:03:24;4.17;;;1.50;;
4206;SDS011;2117;47.972;7.830;2023-03-18T05:05:50;4.83;;;2.37;;
4206;SDS011;2117;47.972;7.830;2023-03-18T05:08:16;4.10;;;2.30;;
4206;SDS011;2117;47.972;7.830;2023-03-18T05:10:42;2.70;;;1.53;;
4206;SDS011;2117;47.972;7.830;2023-03-18T05:13:08;4.10;;;1.93;;
4206;SDS011;2117;47.972;7.830;2023-03-18T05:15:34;5.37;;;2.90;;
4206;SDS011;2117;47.972;7.830;2023-03-18T05:18:00;2.30;;;1.33;;
4206;SDS011;2117;47.972;7.830;2023-03-18T05:20:26;4.23;;;1.37;;
4206;SDS011;2117;47.972;7.830;2023-03-18T05:22:52;4.13;;;1.83;;
4206;SDS011;2117;47.972;7.830;2023-03-18T05:25:19;4.53;;;1.20;;
4206;SDS011;2117;47.972;7.830;2023-03-18T05:27:45;2.90;;;1.33;;
4206;SDS011;2117;47.972;7.830;2023-03-18T05:30:11;4.80;;;1.20;;
4206;SDS011;2117;47.972;7.830;2023-03-18T05:32:39;2.30;;;1.40;;
4206;SDS011;2117;47.972;7.830;2023-03-18T05:35:05;5.57;;;1.40;;
4206;SDS011;2117;47.972;7.830;2023-03-18T05:37:31;2.17;;;1.20;;
4206;SDS011;2117;47.972;7.830;2023-03-18T05:39:57;5.40;;;1.90;;
4206;SDS011;2117;47.972;7.830;2023-03-18T05:42:23;4.00;;;1.47;;
4206;SDS011;2117;47.972;7.830;2023-03-18T05:44:49;2.70;;;1.40;;
4206;SDS011;2117;47.972;7.830;2023-03-18T05:47:14;2.33;;;1.40;;
4206;SDS011;2117;47.972;7.830;2023-03-18T05:49:40;3.43;;;1.50;;
4206;SDS011;2117;47.972;7.830;2023-03-18T05:52:06;2.97;;;1.47;;
4206;SDS011;2117;47.972;7.830;2023-03-18T05:54:31;4.10;;;1.13;;
4206;SDS011;2117;47.972;7.830;2023-03-18T05:56:57;2.20;;;1.40;;
4206;SDS011;2117;47.972;7.830;2023-03-18T05:59:23;4.70;;;1.37;;
4206;SDS011;2117;47.972;7.830;2023-03-18T06:01:49;4.10;;;1.30;;
4206;SDS011;2117;47.972;7.830;2023-03-18T06:04:16;3.63;;;1.53;;
4206;SDS011;2117;47.972;7.830;2023-03-18T06:06:43;2.37;;;1.47;;
4206;SDS011;2117;47.972;7.830;2023-03-18T06:09:10;4.20;;;1.50;;
4206;SDS011;2117;47.972;7.830;2023-03-18T06:11:37;5.90;;;1.70;;
4206;SDS011;2117;47.972;7.830;2023-03-18T06:14:07;3.90;;;1.80;;
4206;SDS011;2117;47.972;7.830;2023-03-18T06:16:33;4.23;;;1.50;;
4206;SDS011;2117;47.972;7.830;2023-03-18T06:18:59;3.70;;;1.90;;
4206;SDS011;2117;47.972;7.830;2023-03-18T06:21:26;5.93;;;2.30;;
4206;SDS011;2117;47.972;7.830;2023-03-18T06:23:52;5.77;;;2.13;;
4206;SDS011;2117;47.972;7.830;2023-03-18T06:26:18;2.83;;;2.07;;
4206;SDS011;2117;47.972;7.830;2023-03-18T06:28:45;4.03;;;2.67;;
4206;SDS011;2117;47.972;7.830;2023-03-18T06:31:11;4.50;;;2.80;;
4206;SDS011;2117;47.972;7.830;2023-03-18T06:33:37;4.97;;;2.20;;
4206;SDS011;2117;47.972;7.830;2023-03-18T06:36:04;5.40;;;2.60;;
4206;SDS011;2117;47.972;7.830;2023-03-18T06:38:29;5.03;;;2.60;;
4206;SDS011;2117;47.972;7.830;2023-03-18T06:40:56;13.00;;;3.90;;
4206;SDS011;2117;47.972;7.830;2023-03-18T06:43:21;9.57;;;4.07;;
4206;SDS011;2117;47.972;7.830;2023-03-18T06:45:47;7.97;;;4.00;;
4206;SDS011;2117;47.972;7.830;2023-03-18T06:48:13;7.23;;;2.77;;
4206;SDS011;2117;47.972;7.830;2023-03-18T06:50:38;6.00;;;2.40;;
4206;SDS011;2117;47.972;7.830;2023-03-18T06:53:05;3.50;;;1.90;;
4206;SDS011;2117;47.972;7.830;2023-03-18T06:55:31;8.47;;;2.27;;
4206;SDS011;2117;47.972;7.830;2023-03-18T06:57:57;6.10;;;2.20;;
4206;SDS011;2117;47.972;7.830;2023-03-18T07:00:23;3.50;;;1.50;;
4206;SDS011;2117;47.972;7.830;2023-03-18T07:02:49;3.30;;;1.70;;
4206;SDS011;2117;47.972;7.830;2023-03-18T07:05:16;3.90;;;2.00;;
4206;SDS011;2117;47.972;7.830;2023-03-18T07:07:42;3.73;;;2.33;;
4206;SDS011;2117;47.972;7.830;2023-03-18T07:10:09;7.50;;;2.70;;
4206;SDS011;2117;47.972;7.830;2023-03-18T07:12:40;5.80;;;3.17;;
4206;SDS011;2117;47.972;7.830;2023-03-18T07:15:05;9.27;;;3.20;;
4206;SDS011;2117;47.972;7.830;2023-03-18T07:17:31;12.83;;;5.47;;
4206;SDS011;2117;47.972;7.830;2023-03-18T07:19:57;8.10;;;2.67;;
4206;SDS011;2117;47.972;7.830;2023-03-18T07:22:22;5.40;;;2.97;;
4206;SDS011;2117;47.972;7.830;2023-03-18T07:24:48;7.13;;;3.40;;
4206;SDS011;2117;47.972;7.830;2023-03-18T07:27:15;7.00;;;3.50;;
4206;SDS011;2117;47.972;7.830;2023-03-18T07:29:41;14.10;;;5.17;;
4206;SDS011;2117;47.972;7.830;2023-03-18T07:32:06;8.67;;;4.63;;
4206;SDS011;2117;47.972;7.830;2023-03-18T07:34:32;4.50;;;2.40;;
4206;SDS011;2117;47.972;7.830;2023-03-18T07:36:58;5.63;;;2.40;;
4206;SDS011;2117;47.972;7.830;2023-03-18T07:39:23;2.93;;;1.80;;
4206;SDS011;2117;47.972;7.830;2023-03-18T07:41:49;6.17;;;2.57;;
4206;SDS011;2117;47.972;7.830;2023-03-18T07:44:15;3.37;;;1.40;;
4206;SDS011;2117;47.972;7.830;2023-03-18T07:46:41;5.23;;;2.10;;
4206;SDS011;2117;47.972;7.830;2023-03-18T07:49:06;3.83;;;1.20;;
4206;SDS011;2117;47.972;7.830;2023-03-18T07:51:32;8.00;;;2.40;;
4206;SDS011;2117;47.972;7.830;2023-03-18T07:53:58;2.90;;;1.33;;
4206;SDS011;2117;47.972;7.830;2023-03-18T07:56:23;4.83;;;2.10;;
4206;SDS011;2117;47.972;7.830;2023-03-18T07:58:51;4.03;;;1.40;;
4206;SDS011;2117;47.972;7.830;2023-03-18T08:01:17;7.03;;;1.63;;
4206;SDS011;2117;47.972;7.830;2023-03-18T08:03:44;4.63;;;1.70;;
4206;SDS011;2117;47.972;7.830;2023-03-18T08:06:10;3.07;;;1.70;;
4206;SDS011;2117;47.972;7.830;2023-03-18T08:08:37;4.20;;;1.57;;
4206;SDS011;2117;47.972;7.830;2023-03-18T08:11:04;3.40;;;1.97;;
4206;SDS011;2117;47.972;7.830;2023-03-18T08:13:30;5.30;;;1.33;;
4206;SDS011;2117;47.972;7.830;2023-03-18T08:15:56;5.23;;;1.63;;
4206;SDS011;2117;47.972;7.830;2023-03-18T08:18:22;5.50;;;1.50;;
4206;SDS011;2117;47.972;7.830;2023-03-18T08:20:48;7.33;;;1.47;;
4206;SDS011;2117;47.972;7.830;2023-03-18T08:23:14;6.70;;;1.17;;
4206;SDS011;2117;47.972;7.830;2023-03-18T08:25:40;2.53;;;1.20;;
4206;SDS011;2117;47.972;7.830;2023-03-18T08:28:06;4.50;;;1.30;;
4206;SDS011;2117;47.972;7.830;2023-03-18T08:30:33;4.50;;;1.47;;
4206;SDS011;2117;47.972;7.830;2023-03-18T08:32:59;4.27;;;1.37;;
4206;SDS011;2117;47.972;7.830;2023-03-18T08:35:26;4.63;;;1.37;;
4206;SDS011;2117;47.972;7.830;2023-03-18T08:37:51;2.07;;;1.23;;
4206;SDS011;2117;47.972;7.830;2023-03-18T08:40:17;3.93;;;1.47;;
4206;SDS011;2117;47.972;7.830;2023-03-18T08:42:44;2.90;;;1.30;;
4206;SDS011;2117;47.972;7.830;2023-03-18T08:45:11;2.20;;;1.20;;
4206;SDS011;2117;47.972;7.830;2023-03-18T08:47:37;2.53;;;1.00;;
4206;SDS011;2117;47.972;7.830;2023-03-18T08:50:03;3.03;;;1.33;;
4206;SDS011;2117;47.972;7.830;2023-03-18T08:52:30;2.73;;;1.20;;
4206;SDS011;2117;47.972;7.830;2023-03-18T08:54:56;1.87;;;1.03;;
4206;SDS011;2117;47.972;7.830;2023-03-18T08:57:22;2.80;;;1.00;;
4206;SDS011;2117;47.972;7.830;2023-03-18T08:59:49;2.20;;;1.23;;
4206;SDS011;2117;47.972;7.830;2023-03-18T09:02:15;2.70;;;1.10;;
4206;SDS011;2117;47.972;7.830;2023-03-18T09:04:42;3.00;;;1.97;;
4206;SDS011;2117;47.972;7.830;2023-03-18T09:07:08;1.80;;;1.17;;
4206;SDS011;2117;47.972;7.830;2023-03-18T09:09:34;3.63;;;1.70;;
4206;SDS011;2117;47.972;7.830;2023-03-18T09:12:00;5.43;;;1.27;;
4206;SDS011;2117;47.972;7.830;2023-03-18T09:14:28;3.10;;;1.50;;
4206;SDS011;2117;47.972;7.830;2023-03-18T09:16:57;3.00;;;1.30;;
4206;SDS011;2117;47.972;7.830;2023-03-18T09:19:24;6.37;;;1.40;;
4206;SDS011;2117;47.972;7.830;2023-03-18T09:21:50;5.73;;;1.67;;
4206;SDS011;2117;47.972;7.830;2023-03-18T09:24:16;5.33;;;2.03;;
4206;SDS011;2117;47.972;7.830;2023-03-18T09:26:41;3.23;;;1.33;;
4206;SDS011;2117;47.972;7.830;2023-03-18T09:29:07;6.73;;;1.50;;
4206;SDS011;2117;47.972;7.830;2023-03-18T09:31:33;3.13;;;1.10;;
4206;SDS011;2117;47.972;7.830;2023-03-18T09:33:59;3.80;;;1.10;;
4206;SDS011;2117;47.972;7.830;2023-03-18T09:36:25;1.90;;;1.13;;
4206;SDS011;2117;47.972;7.830;2023-03-18T09:38:51;5.73;;;1.70;;
4206;SDS011;2117;47.972;7.830;2023-03-18T09:44:19;3.47;;;1.30;;
4206;SDS011;2117;47.972;7.830;2023-03-18T09:52:23;5.10;;;1.67;;
4206;SDS011;2117;47.972;7.830;2023-03-18T09:54:54;4.43;;;2.10;;
4206;SDS011;2117;47.972;7.830;2023-03-18T09:57:33;2.80;;;1.40;;
4206;SDS011;2117;47.972;7.830;2023-03-18T10:00:06;2.83;;;1.00;;
4206;SDS011;2117;47.972;7.830;2023-03-18T10:05:41;5.40;;;1.30;;
4206;SDS011;2117;47.972;7.830;2023-03-18T10:08:26;4.13;;;1.73;;
4206;SDS011;2117;47.972;7.830;2023-03-18T10:11:05;2.77;;;1.37;;
4206;SDS011;2117;47.972;7.830;2023-03-18T10:13:41;1.90;;;1.20;;
4206;SDS011;2117;47.972;7.830;2023-03-18T10:16:10;3.60;;;1.10;;
4206;SDS011;2117;47.972;7.830;2023-03-18T10:18:44;2.60;;;1.37;;
4206;SDS011;2117;47.972;7.830;2023-03-18T10:24:00;4.33;;;1.20;;
4206;SDS011;2117;47.972;7.830;2023-03-18T10:29:06;4.30;;;1.70;;
4206;SDS011;2117;47.972;7.830;2023-03-18T10:40:32;5.50;;;1.70;;
4206;SDS011;2117;47.972;7.830;2023-03-18T10:43:00;1.77;;;1.07;;
4206;SDS011;2117;47.972;7.830;2023-03-18T10:45:28;4.80;;;1.27;;
4206;SDS011;2117;47.972;7.830;2023-03-18T10:47:57;3.37;;;1.57;;
4206;SDS011;2117;47.972;7.830;2023-03-18T10:50:36;3.83;;;1.33;;
4206;SDS011;2117;47.972;7.830;2023-03-18T10:56:07;3.80;;;1.20;;
4206;SDS011;2117;47.972;7.830;2023-03-18T10:58:37;3.70;;;1.90;;
4206;SDS011;2117;47.972;7.830;2023-03-18T11:01:05;4.70;;;1.30;;
4206;SDS011;2117;47.972;7.830;2023-03-18T11:03:33;5.10;;;1.93;;
4206;SDS011;2117;47.972;7.830;2023-03-18T11:06:00;8.90;;;1.53;;
4206;SDS011;2117;47.972;7.830;2023-03-18T11:08:32;2.20;;;1.33;;
4206;SDS011;2117;47.972;7.830;2023-03-18T11:13:44;4.23;;;1.73;;
4206;SDS011;2117;47.972;7.830;2023-03-18T11:16:36;9.03;;;2.33;;
4206;SDS011;2117;47.972;7.830;2023-03-18T11:19:21;3.30;;;1.90;;
4206;SDS011;2117;47.972;7.830;2023-03-18T11:24:35;3.90;;;1.97;;
4206;SDS011;2117;47.972;7.830;2023-03-18T11:29:43;4.90;;;1.70;;
4206;SDS011;2117;47.972;7.830;2023-03-18T11:32:33;4.40;;;1.60;;
4206;SDS011;2117;47.972;7.830;2023-03-18T11:35:01;6.10;;;2.20;;
4206;SDS011;2117;47.972;7.830;2023-03-18T11:37:29;6.60;;;3.00;;
4206;SDS011;2117;47.972;7.830;2023-03-18T11:42:39;4.93;;;2.33;;
4206;SDS011;2117;47.972;7.830;2023-03-18T11:47:58;5.07;;;1.90;;
4206;SDS011;2117;47.972;7.830;2023-03-18T11:50:28;5.63;;;2.00;;
4206;SDS011;2117;47.972;7.830;2023-03-18T12:10:15;3.20;;;2.03;;
4206;SDS011;2117;47.972;7.830;2023-03-18T12:15:37;5.60;;;2.03;;
4206;SDS011;2117;47.972;7.830;2023-03-18T12:24:57;3.30;;;1.90;;
4206;SDS011;2117;47.972;7.830;2023-03-18T12:27:02;4.90;;;1.80;;
4206;SDS011;2117;47.972;7.830;2023-03-18T12:33:04;4.37;;;2.17;;
4206;SDS011;2117;47.972;7.830;2023-03-18T12:35:35;3.30;;;1.83;;
4206;SDS011;2117;47.972;7.830;2023-03-18T12:41:08;4.13;;;2.10;;
4206;SDS011;2117;47.972;7.830;2023-03-18T12:43:58;4.27;;;2.00;;
4206;SDS011;2117;47.972;7.830;2023-03-18T12:49:35;4.03;;;1.50;;
4206;SDS011;2117;47.972;7.830;2023-03-18T12:52:12;2.63;;;1.63;;
4206;SDS011;2117;47.972;7.830;2023-03-18T12:59:57;3.77;;;1.63;;
4206;SDS011;2117;47.972;7.830;2023-03-18T13:05:20;2.97;;;1.73;;
4206;SDS011;2117;47.972;7.830;2023-03-18T13:10:44;4.67;;;2.23;;
4206;SDS011;2117;47.972;7.830;2023-03-18T13:13:14;4.90;;;1.87;;
4206;SDS011;2117;47.972;7.830;2023-03-18T13:15:42;3.73;;;1.77;;
4206;SDS011;2117;47.972;7.830;2023-03-18T13:20:45;3.73;;;1.90;;
4206;SDS011;2117;47.972;7.830;2023-03-18T13:34:09;4.03;;;1.97;;
4206;SDS011;2117;47.972;7.830;2023-03-18T13:42:39;3.30;;;1.50;;
4206;SDS011;2117;47.972;7.830;2023-03-18T13:47:59;3.70;;;1.70;;
4206;SDS011;2117;47.972;7.830;2023-03-18T13:50:40;3.80;;;2.00;;
4206;SDS011;2117;47.972;7.830;2023-03-18T13:53:17;5.30;;;2.00;;
4206;SDS011;2117;47.972;7.830;2023-03-18T13:55:51;4.60;;;1.90;;
4206;SDS011;2117;47.972;7.830;2023-03-18T14:01:13;8.00;;;2.13;;
4206;SDS011;2117;47.972;7.830;2023-03-18T14:08:35;6.83;;;2.53;;
4206;SDS011;2117;47.972;7.830;2023-03-18T14:13:42;3.20;;;1.90;;
4206;SDS011;2117;47.972;7.830;2023-03-18T14:16:09;6.50;;;2.10;;
4206;SDS011;2117;47.972;7.830;2023-03-18T14:18:36;3.20;;;1.60;;
4206;SDS011;2117;47.972;7.830;2023-03-18T14:21:03;4.17;;;1.93;;
4206;SDS011;2117;47.972;7.830;2023-03-18T14:28:27;5.40;;;1.70;;
4206;SDS011;2117;47.972;7.830;2023-03-18T14:36:44;4.93;;;2.03;;
4206;SDS011;2117;47.972;7.830;2023-03-18T14:39:16;5.53;;;2.37;;
4206;SDS011;2117;47.972;7.830;2023-03-18T14:41:43;5.27;;;2.60;;
4206;SDS011;2117;47.972;7.830;2023-03-18T14:46:50;4.40;;;1.83;;
4206;SDS011;2117;47.972;7.830;2023-03-18T14:51:57;5.00;;;2.07;;
4206;SDS011;2117;47.972;7.830;2023-03-18T14:54:23;2.50;;;1.60;;
4206;SDS011;2117;47.972;7.830;2023-03-18T14:56:52;7.23;;;1.83;;
4206;SDS011;2117;47.972;7.830;2023-03-18T14:59:22;7.27;;;1.83;;
4206;SDS011;2117;47.972;7.830;2023-03-18T15:01:48;3.37;;;1.73;;
4206;SDS011;2117;47.972;7.830;2023-03-18T15:04:20;3.47;;;1.90;;
4206;SDS011;2117;47.972;7.830;2023-03-18T15:06:49;6.47;;;1.90;;
4206;SDS011;2117;47.972;7.830;2023-03-18T15:09:17;11.60;;;2.47;;
4206;SDS011;2117;47.972;7.830;2023-03-18T15:11:51;5.77;;;2.13;;
4206;SDS011;2117;47.972;7.830;2023-03-18T15:14:25;4.80;;;2.13;;
4206;SDS011;2117;47.972;7.830;2023-03-18T15:16:55;3.70;;;1.97;;
4206;SDS011;2117;47.972;7.830;2023-03-18T15:19:28;3.33;;;1.70;;
4206;SDS011;2117;47.972;7.830;2023-03-18T15:21:56;3.50;;;2.10;;
4206;SDS011;2117;47.972;7.830;2023-03-18T15:24:27;4.43;;;1.90;;
4206;SDS011;2117;47.972;7.830;2023-03-18T15:26:58;4.17;;;2.07;;
4206;SDS011;2117;47.972;7.830;2023-03-18T15:29:31;2.87;;;1.60;;
4206;SDS011;2117;47.972;7.830;2023-03-18T15:34:51;5.47;;;2.13;;
4206;SDS011;2117;47.972;7.830;2023-03-18T15:37:30;4.10;;;1.70;;
4206;SDS011;2117;47.972;7.830;2023-03-18T15:42:42;3.30;;;1.70;;
4206;SDS011;2117;47.972;7.830;2023-03-18T15:45:09;7.47;;;1.83;;
4206;SDS011;2117;47.972;7.830;2023-03-18T15:47:47;3.47;;;1.80;;
4206;SDS011;2117;47.972;7.830;2023-03-18T15:50:18;5.20;;;1.40;;
4206;SDS011;2117;47.972;7.830;2023-03-18T15:52:59;4.50;;;1.67;;
4206;SDS011;2117;47.972;7.830;2023-03-18T15:58:11;5.70;;;1.90;;
4206;SDS011;2117;47.972;7.830;2023-03-18T16:00:48;3.73;;;1.60;;
4206;SDS011;2117;47.972;7.830;2023-03-18T16:03:22;3.70;;;1.90;;
4206;SDS011;2117;47.972;7.830;2023-03-18T16:05:50;3.70;;;1.40;;
4206;SDS011;2117;47.972;7.830;2023-03-18T16:08:17;4.80;;;1.90;;
4206;SDS011;2117;47.972;7.830;2023-03-18T16:10:45;8.27;;;2.90;;
4206;SDS011;2117;47.972;7.830;2023-03-18T16:13:25;6.57;;;3.20;;
4206;SDS011;2117;47.972;7.830;2023-03-18T16:15:53;8.63;;;2.43;;
4206;SDS011;2117;47.972;7.830;2023-03-18T16:18:20;4.00;;;2.30;;
4206;SDS011;2117;47.972;7.830;2023-03-18T16:20:46;3.90;;;1.80;;
4206;SDS011;2117;47.972;7.830;2023-03-18T16:23:13;3.93;;;2.03;;
4206;SDS011;2117;47.972;7.830;2023-03-18T16:25:41;4.70;;;2.50;;
4206;SDS011;2117;47.972;7.830;2023-03-18T16:28:16;4.73;;;2.47;;
4206;SDS011;2117;47.972;7.830;2023-03-18T16:30:50;5.13;;;2.90;;
4206;SDS011;2117;47.972;7.830;2023-03-18T16:33:18;4.60;;;3.30;;
4206;SDS011;2117;47.972;7.830;2023-03-18T16:35:54;7.17;;;3.23;;
4206;SDS011;2117;47.972;7.830;2023-03-18T16:38:24;5.10;;;3.30;;
4206;SDS011;2117;47.972;7.830;2023-03-18T16:40:52;4.63;;;2.93;;
4206;SDS011;2117;47.972;7.830;2023-03-18T16:43:20;6.40;;;2.50;;
4206;SDS011;2117;47.972;7.830;2023-03-18T16:45:48;5.90;;;2.20;;
4206;SDS011;2117;47.972;7.830;2023-03-18T16:48:16;4.77;;;2.80;;
4206;SDS011;2117;47.972;7.830;2023-03-18T16:50:44;4.00;;;2.53;;
4206;SDS011;2117;47.972;7.830;2023-03-18T16:56:01;9.97;;;6.23;;
4206;SDS011;2117;47.972;7.830;2023-03-18T16:58:34;8.63;;;5.50;;
4206;SDS011;2117;47.972;7.830;2023-03-18T17:01:01;8.10;;;4.10;;
4206;SDS011;2117;47.972;7.830;2023-03-18T17:03:30;9.27;;;4.53;;
4206;SDS011;2117;47.972;7.830;2023-03-18T17:05:55;9.83;;;4.13;;
4206;SDS011;2117;47.972;7.830;2023-03-18T17:08:21;11.00;;;3.73;;
4206;SDS011;2117;47.972;7.830;2023-03-18T17:10:47;8.07;;;3.70;;
4206;SDS011;2117;47.972;7.830;2023-03-18T17:13:18;6.07;;;3.90;;
4206;SDS011;2117;47.972;7.830;2023-03-18T17:15:46;7.83;;;4.10;;
4206;SDS011;2117;47.972;7.830;2023-03-18T17:18:14;7.73;;;4.13;;
4206;SDS011;2117;47.972;7.830;2023-03-18T17:20:41;10.73;;;4.23;;
4206;SDS011;2117;47.972;7.830;2023-03-18T17:23:12;8.20;;;3.63;;
4206;SDS011;2117;47.972;7.830;2023-03-18T17:25:39;6.60;;;3.50;;
4206;SDS011;2117;47.972;7.830;2023-03-18T17:28:09;16.00;;;4.00;;
4206;SDS011;2117;47.972;7.830;2023-03-18T17:30:39;14.40;;;4.47;;
4206;SDS011;2117;47.972;7.830;2023-03-18T17:33:22;10.87;;;4.83;;
4206;SDS011;2117;47.972;7.830;2023-03-18T17:35:53;7.00;;;4.47;;
4206;SDS011;2117;47.972;7.830;2023-03-18T17:38:19;6.27;;;3.90;;
4206;SDS011;2117;47.972;7.830;2023-03-18T17:40:45;7.47;;;5.43;;
4206;SDS011;2117;47.972;7.830;2023-03-18T17:43:28;13.10;;;6.87;;
4206;SDS011;2117;47.972;7.830;2023-03-18T17:45:56;8.57;;;4.93;;
4206;SDS011;2117;47.972;7.830;2023-03-18T17:48:28;5.40;;;3.50;;
4206;SDS011;2117;47.972;7.830;2023-03-18T17:50:56;6.77;;;2.80;;
4206;SDS011;2117;47.972;7.830;2023-03-18T17:53:25;7.50;;;2.57;;
4206;SDS011;2117;47.972;7.830;2023-03-18T17:56:03;5.67;;;2.80;;